Flight Track Log - Related Links

Times and Time Zones

All times are in EDT time to prevent confusion due to time zone crossing. See the RPA3253 flight status page for this flight to view local times or setup timezone preferences in your user account.

Time Position Orientation Groundspeed Altitude Reporting Facility
EDT Latitude Longitude Course Direction KTS MPH feet Rate Location/Type
Tue 07:40:00 PM 42.7483 -73.8228 169° South 140 161 1,600  Level Boston Center
Tue 07:40:36 PM 42.7564 -73.8567 288° West 173 199 2,900 2,552 Climbing Boston Center
Tue 07:41:27 PM 42.7956 -73.8747 341° North 220 253 5,300 3,459 Climbing Boston Center
Tue 07:42:00 PM 42.5160 -74.0551 171° South  Level Estimated
Tue 07:42:27 PM 42.8578 -73.9072 339° North 226 260 9,300  Level Boston Center
Tue 07:43:00 PM 42.4382 -74.1391 180° South  Level Estimated
Tue 07:43:27 PM 42.9219 -73.9514 333° Northwest 231 266 13,400  Level Boston Center
Tue 07:44:00 PM 42.3603 -74.2228 170° South  Level Estimated
Tue 07:44:27 PM 42.8833 -74.0269 235° Southwest 193 222 15,700  Level Boston Center
Tue 07:45:00 PM 42.2824 -74.3064 169° South  Level Estimated
Tue 07:45:27 PM 42.8222 -74.0650 205° Southwest 216 249 17,700  Level Boston Center
Tue 07:46:27 PM 42.6986 -74.1211 198° South 309 356 21,500 2,800 Climbing Boston Center
Tue 07:47:27 PM 42.6092 -74.1044 172° South 354 407 23,300 2,200 Climbing Boston Center
Tue 07:48:27 PM 42.4975 -74.0367 156° South 368 423 25,900 2,300 Climbing Boston Center
Tue 07:49:27 PM 42.3878 -73.9917 163° South 390 449 27,900 1,800 Climbing Boston Center
Tue 07:50:27 PM 42.2592 -73.9436 165° South 424 488 29,500 1,400 Climbing Boston Center
Tue 07:51:27 PM 42.1408 -73.8961 163° South 437 503 30,700 1,350 Climbing Boston Center
Tue 07:52:27 PM 42.0164 -73.8539 166° South 450 518 32,200 1,450 Climbing Boston Center
Tue 07:53:27 PM 41.8994 -73.8736 187° South 439 505 33,600 554 Climbing Boston Center
Tue 07:55:42 PM 41.6508 -73.9886 199° South 414 476 34,000 123 Climbing New York Center
Tue 07:56:42 PM 41.5453 -74.0444 202° Southwest 424 488 34,000  Level New York Center
Tue 07:57:43 PM 41.4292 -74.0997 200° South 424 488 34,000  Level New York Center
Tue 07:58:41 PM 41.3150 -74.1547 200° South 431 496 34,000  Level New York Center
Tue 07:59:41 PM 41.2286 -74.1947 199° South 431 496 34,000  Level New York Center
Tue 08:00:42 PM 41.0936 -74.2511 197° South 431 496 34,000  Level New York Center
Tue 08:01:41 PM 40.9878 -74.3117 203° Southwest 431 496 34,000  Level New York Center
Tue 08:02:41 PM 40.9053 -74.4144 223° Southwest 412 474 34,000  Level New York Center
Tue 08:03:41 PM 40.8294 -74.5144 225° Southwest 406 467 34,000  Level New York Center
Tue 08:04:43 PM 40.7511 -74.6197 226° Southwest 400 460 34,000  Level New York Center
Tue 08:05:41 PM 40.6706 -74.7192 223° Southwest 406 467 34,000  Level New York Center
Tue 08:06:42 PM 40.5900 -74.8211 224° Southwest 406 467 34,000  Level New York Center
Tue 08:07:42 PM 40.5092 -74.9283 225° Southwest 406 467 34,000  Level New York Center
Tue 08:08:43 PM 40.4281 -75.0381 226° Southwest 406 467 34,000  Level New York Center
Tue 08:09:41 PM 40.3475 -75.1336 222° Southwest 406 467 34,000  Level New York Center
Tue 08:10:41 PM 40.2642 -75.2428 225° Southwest 411 473 34,000  Level New York Center
Tue 08:11:42 PM 40.1811 -75.3461 224° Southwest 416 479 34,000  Level New York Center
Tue 08:12:43 PM 40.1044 -75.4414 224° Southwest 426 490 34,000  Level New York Center
Tue 08:13:41 PM 40.0208 -75.5497 225° Southwest 421 484 34,000  Level New York Center
Tue 08:14:42 PM 39.9353 -75.6547 223° Southwest 421 484 34,000  Level New York Center
Tue 08:15:40 PM 39.8594 -75.7711 230° Southwest 428 493 34,000  Level New York Center
Tue 08:16:42 PM 39.7878 -75.8903 232° Southwest 428 493 34,000  Level New York Center
Tue 08:17:43 PM 39.7117 -76.0089 230° Southwest 428 493 34,000  Level New York Center
Tue 08:18:43 PM 39.6356 -76.1247 230° Southwest 428 493 34,000  Level New York Center
Tue 08:19:27 PM 39.5725 -76.2214 230° Southwest 430 495 34,000  Level Washington Center
Tue 08:20:26 PM 39.4947 -76.3419 230° Southwest 435 501 34,000  Level Washington Center
Tue 08:21:26 PM 39.4189 -76.4592 230° Southwest 430 495 34,000  Level Washington Center
Tue 08:22:27 PM 39.3408 -76.5764 229° Southwest 430 495 34,000  Level Washington Center
Tue 08:23:28 PM 39.2647 -76.6933 230° Southwest 430 495 34,000  Level Washington Center
Tue 08:24:25 PM 39.1886 -76.8128 231° Southwest 430 495 34,000  Level Washington Center
Tue 08:25:26 PM 39.1122 -76.9292 230° Southwest 430 495 34,000  Level Washington Center
Tue 08:26:27 PM 39.0339 -77.0481 230° Southwest 430 495 34,000  Level Washington Center
Tue 08:27:26 PM 38.9408 -77.1528 221° Southwest 430 495 34,000  Level Washington Center
Tue 08:28:26 PM 38.8478 -77.2547 220° Southwest 441 507 34,000  Level Washington Center
Tue 08:29:27 PM 38.7525 -77.3567 220° Southwest 453 521 34,000  Level Washington Center
Tue 08:30:25 PM 38.6569 -77.4633 221° Southwest 458 527 34,000  Level Washington Center
Tue 08:31:25 PM 38.5617 -77.5644 220° Southwest 458 527 34,000  Level Washington Center
Tue 08:32:26 PM 38.4681 -77.6681 221° Southwest 458 527 34,000  Level Washington Center
Tue 08:33:26 PM 38.3725 -77.7714 220° Southwest 458 527 34,000  Level Washington Center
Tue 08:34:27 PM 38.2808 -77.8717 221° Southwest 458 527 34,000  Level Washington Center
Tue 08:35:27 PM 38.1958 -77.9617 220° Southwest 458 527 34,000  Level Washington Center
Tue 08:36:25 PM 38.0997 -78.0642 220° Southwest 458 527 34,000  Level Washington Center
Tue 08:37:26 PM 38.0058 -78.1664 221° Southwest 458 527 34,000  Level Washington Center
Tue 08:38:27 PM 37.9217 -78.2953 230° Southwest 445 512 34,000  Level Washington Center
Tue 08:39:25 PM 37.8378 -78.4106 227° Southwest 445 512 34,000  Level Washington Center
Tue 08:40:26 PM 37.7664 -78.5156 229° Southwest 445 512 34,000  Level Washington Center
Tue 08:41:27 PM 37.6864 -78.6306 229° Southwest 450 518 34,000  Level Washington Center
Tue 08:42:27 PM 37.6042 -78.7481 229° Southwest 450 518 34,000  Level Washington Center
Tue 08:43:25 PM 37.5219 -78.8597 227° Southwest 450 518 34,000 -305 Level Washington Center
Tue 08:44:25 PM 37.4306 -78.9892 228° Southwest 450 518 33,400 -744 Descending Washington Center
Tue 08:45:26 PM 37.3458 -79.1056 228° Southwest 455 524 32,500 -787 Descending Washington Center
Tue 08:46:27 PM 37.2567 -79.2267 227° Southwest 455 524 31,800 -744 Descending Washington Center
Tue 08:47:27 PM 37.1494 -79.3258 216° Southwest 466 536 31,000 -763 Descending Washington Center
Tue 08:48:25 PM 37.0358 -79.4167 213° Southwest 485 558 30,300 -1,068 Descending Washington Center
Tue 08:49:25 PM 36.9394 -79.4950 213° Southwest 485 558 28,900 -1,150 Descending Washington Center
Tue 08:50:25 PM 36.8322 -79.5831 213° Southwest 474 545 28,000 -446 Descending Washington Center
Tue 08:51:26 PM 36.7292 -79.6711 214° Southwest 468 539 28,000 -43 Level Washington Center
Tue 08:52:44 PM 36.5914 -79.7803 212° Southwest 467 537 27,900 -957 Descending Atlanta Center
Tue 08:53:44 PM 36.4858 -79.8633 212° Southwest 462 532 25,800 -2,950 Descending Atlanta Center
Tue 08:54:44 PM 36.3864 -79.9486 215° Southwest 455 524 22,000 -1,900 Descending Atlanta Center
Tue 08:55:44 PM 36.2808 -80.0336 213° Southwest 431 496 22,000  Level Atlanta Center
Tue 08:56:44 PM 36.1853 -80.1131 214° Southwest 426 490 22,000 -950 Level Atlanta Center
Tue 08:57:44 PM 36.0919 -80.1922 214° Southwest 421 484 20,100 -2,100 Descending Atlanta Center
Tue 08:58:44 PM 36.0025 -80.2708 215° Southwest 409 471 17,800 -2,323 Descending Atlanta Center
Tue 08:59:17 PM 35.9581 -80.3139 218° Southwest 383 441 16,500 -2,200 Descending Atlanta Center
Tue 08:59:44 PM 35.9192 -80.3464 214° Southwest 396 456 15,600 -2,069 Descending Atlanta Center
Tue 09:00:44 PM 35.8378 -80.4117 213° Southwest 378 435 13,500 -1,311 Descending Atlanta Center
Tue 09:01:43 PM 35.7647 -80.4764 216° Southwest 317 365 13,000 -762 Descending Atlanta Center
Tue 09:02:50 PM 35.6911 -80.5306 211° Southwest 266 306 11,900 -1,875 Descending Atlanta Center
Tue 09:03:51 PM 35.6019 -80.5522 191° South 330 380 9,000 -2,211 Descending Atlanta Center
Tue 09:04:44 PM 35.5272 -80.5658 188° South 307 353 7,700 -1,009 Descending Atlanta Center
Tue 09:05:44 PM 35.4617 -80.6092 208° Southwest 286 329 7,100 -550 Descending Atlanta Center
Tue 09:06:44 PM 35.4172 -80.6594 223° Southwest 259 298 6,600 -900 Descending Atlanta Center
Tue 09:07:44 PM 35.3750 -80.7172 228° Southwest 239 275 5,300 -1,350 Descending Atlanta Center
Tue 09:08:44 PM 35.3328 -80.7775 229° Southwest 239 275 3,900 -1,077 Descending Atlanta Center
Tue 09:09:02 PM 35.3186 -80.7986 231° Southwest 229 264 3,900 -986 Level Atlanta Center
Tue 09:09:57 PM 35.2925 -80.8378 231° Southwest 152 175 2,700 -1,309 Descending Atlanta Center

Login

Don't have an account? Register now (free) for customized features, flight alerts, and more!